createdAt,value
2018-05-10T00:00:39.995Z,99452.25
2018-05-10T00:03:09.143Z,99454.64
2018-05-10T00:05:38.326Z,99453.02
2018-05-10T00:08:08.206Z,99455.42
2018-05-10T00:10:37.353Z,99460.13
2018-05-10T00:13:06.496Z,99459.55
2018-05-10T00:15:35.675Z,99457.69
2018-05-10T00:18:04.824Z,99457.48
2018-05-10T00:20:34.003Z,99458.17
2018-05-10T00:23:04.152Z,99462.36
2018-05-10T00:25:33.314Z,99460.11
2018-05-10T00:28:03.416Z,99454.84
2018-05-10T00:30:32.587Z,99453.44
2018-05-10T00:33:02.540Z,99448.23
2018-05-10T00:35:31.686Z,99450.94
2018-05-10T00:38:01.563Z,99448.98
2018-05-10T00:40:30.780Z,99444.52
2018-05-10T00:43:00.741Z,99446.63
2018-05-10T00:45:30.666Z,99445.59
2018-05-10T00:48:00.847Z,99447.57
2018-05-10T00:50:29.987Z,99453.78
2018-05-10T00:52:59.128Z,99457.00
2018-05-10T00:55:28.346Z,99452.13
2018-05-10T00:57:57.513Z,99455.38
2018-05-10T01:00:26.690Z,99451.41
2018-05-10T01:02:55.882Z,99462.63
2018-05-10T01:05:25.050Z,99461.17
2018-05-10T01:07:54.986Z,99466.19
2018-05-10T01:10:24.923Z,99461.77
2018-05-10T01:26:10.651Z,99480.39
2018-05-10T01:28:40.667Z,99483.85
2018-05-10T01:31:12.090Z,99478.22
2018-05-10T01:33:43.533Z,99479.62
2018-05-10T01:36:16.564Z,99475.95
2018-05-10T01:38:48.333Z,99470.83
2018-05-10T01:41:19.462Z,99482.37
2018-05-10T01:43:50.280Z,99481.18
2018-05-10T01:46:22.050Z,99475.83
2018-05-10T01:48:53.385Z,99479.37
2018-05-10T01:51:23.444Z,99477.17
2018-05-10T01:53:52.604Z,99482.27
2018-05-10T01:56:23.276Z,99482.05
2018-05-10T01:58:52.469Z,99476.39
2018-05-10T02:01:21.633Z,99477.75
2018-05-10T02:03:50.794Z,99483.08
2018-05-10T02:06:19.943Z,99484.80
2018-05-10T02:08:49.866Z,99493.11
2018-05-10T02:11:19.762Z,99494.09
2018-05-10T02:13:48.999Z,99503.98
2018-05-10T02:16:18.166Z,99505.87
2018-05-10T02:18:48.095Z,99506.36
2018-05-10T02:21:18.029Z,99515.52
2018-05-10T02:23:47.196Z,99515.24
2018-05-10T02:26:18.100Z,99515.86
2018-05-10T02:28:47.255Z,99509.39
2018-05-10T02:31:17.187Z,99511.27
2018-05-10T02:33:46.334Z,99519.41
2018-05-10T02:36:17.181Z,99513.69
2018-05-10T02:38:47.105Z,99512.59
2018-05-10T02:41:17.031Z,99512.52
2018-05-10T02:43:46.771Z,99507.89
2018-05-10T02:46:15.939Z,99506.37
2018-05-10T02:48:45.850Z,99501.02
2018-05-10T02:51:15.023Z,99493.14
2018-05-10T02:53:44.946Z,99494.27
2018-05-10T02:56:14.111Z,99475.72
2018-05-10T02:58:43.307Z,99462.38
2018-05-10T03:01:12.750Z,99460.87
2018-05-10T03:03:42.675Z,99470.11
2018-05-10T03:06:12.205Z,99494.45
2018-05-10T03:08:41.363Z,99509.06
2018-05-10T03:11:12.536Z,99512.05
2018-05-10T03:13:41.706Z,99518.34
2018-05-10T03:16:12.862Z,99504.02
2018-05-10T03:18:42.095Z,99486.07
2018-05-10T03:21:13.127Z,99467.19
2018-05-10T03:23:42.269Z,99465.30
2018-05-10T03:26:13.277Z,99468.80
2018-05-10T03:28:42.420Z,99474.09
2018-05-10T03:31:13.225Z,99488.02
2018-05-10T03:33:43.493Z,99491.23
2018-05-10T03:36:12.689Z,99491.42
2018-05-10T03:38:42.601Z,99484.98
2018-05-10T03:41:13.296Z,99484.69
2018-05-10T03:43:42.430Z,99476.75
2018-05-10T03:46:12.349Z,99476.82
2018-05-10T03:48:41.516Z,99483.71
2018-05-10T03:51:10.656Z,99493.46
2018-05-10T03:53:39.862Z,99514.19
2018-05-10T03:56:08.989Z,99528.56
2018-05-10T03:58:38.126Z,99533.17
2018-05-10T04:01:08.072Z,99547.09
2018-05-10T04:03:54.817Z,99542.28
2018-05-10T04:06:41.424Z,99539.05
2018-05-10T04:09:28.073Z,99547.03
2018-05-10T04:11:57.238Z,99543.91
2018-05-10T04:14:26.389Z,99549.23
2018-05-10T04:16:55.560Z,99556.00
2018-05-10T04:19:24.730Z,99561.92
2018-05-10T04:21:53.930Z,99568.27
2018-05-10T04:24:23.114Z,99581.03
2018-05-10T04:26:52.289Z,99579.08
2018-05-10T04:29:21.437Z,99584.06
2018-05-10T04:31:51.367Z,99590.45
2018-05-10T04:34:21.269Z,99581.16
2018-05-10T04:36:51.247Z,99576.16
2018-05-10T04:39:20.427Z,99577.18
2018-05-10T04:41:49.635Z,99571.53
2018-05-10T04:44:18.794Z,99582.51
2018-05-10T04:46:47.938Z,99590.07
2018-05-10T04:49:17.152Z,99599.48
2018-05-10T04:51:46.297Z,99591.51
2018-05-10T04:54:16.216Z,99598.30
2018-05-10T04:56:45.439Z,99602.94
2018-05-10T04:59:14.735Z,99600.92
2018-05-10T05:01:43.891Z,99604.66
2018-05-10T05:04:13.049Z,99600.69
2018-05-10T05:06:42.215Z,99604.58
2018-05-10T05:09:13.393Z,99606.03
2018-05-10T05:11:42.553Z,99608.75
2018-05-10T05:14:12.875Z,99604.49
2018-05-10T05:16:42.049Z,99612.11
2018-05-10T05:19:12.502Z,99606.59
2018-05-10T05:21:41.651Z,99605.00
2018-05-10T05:24:12.817Z,99610.00
2018-05-10T05:26:41.977Z,99610.33
2018-05-10T05:29:13.173Z,99621.95
2018-05-10T05:31:42.326Z,99624.20
2018-05-10T05:34:14.255Z,99630.92
2018-05-10T05:36:44.193Z,99632.08
2018-05-10T05:39:13.334Z,99632.97
2018-05-10T05:41:42.542Z,99635.59
2018-05-10T05:44:12.580Z,99629.09
2018-05-10T05:46:42.530Z,99636.70
2018-05-10T05:49:13.763Z,99640.25
2018-05-10T05:51:43.730Z,99639.51
2018-05-10T05:54:13.851Z,99649.50
2018-05-10T05:56:43.013Z,99654.83
2018-05-10T05:59:12.655Z,99652.54
2018-05-10T06:01:41.822Z,99665.47
2018-05-10T06:04:11.036Z,99681.36
2018-05-10T06:06:40.201Z,99684.61
2018-05-10T06:09:09.345Z,99687.05
2018-05-10T06:11:38.525Z,99695.54
2018-05-10T06:14:07.701Z,99705.72
2018-05-10T06:16:36.875Z,99707.00
2018-05-10T06:19:06.814Z,99722.23
2018-05-10T06:21:35.986Z,99729.89
2018-05-10T06:24:05.907Z,99732.09
2018-05-10T06:26:35.154Z,99739.99
2018-05-10T06:29:04.304Z,99738.31
2018-05-10T06:31:33.500Z,99735.82
2018-05-10T06:34:03.533Z,99737.51
2018-05-10T06:36:32.616Z,99733.63
2018-05-10T06:39:01.800Z,99728.86
2018-05-10T06:41:30.960Z,99732.88
2018-05-10T06:44:00.141Z,99729.12
2018-05-10T06:46:29.339Z,99736.27
2018-05-10T06:48:58.659Z,99737.12
2018-05-10T06:51:27.797Z,99738.75
2018-05-10T06:53:57.736Z,99731.22
2018-05-10T06:56:26.869Z,99737.74
2018-05-10T06:58:56.061Z,99734.37
2018-05-10T07:01:25.201Z,99738.22
2018-05-10T07:03:54.353Z,99743.73
2018-05-10T07:06:23.544Z,99746.09
2018-05-10T07:08:53.453Z,99758.66
2018-05-10T07:11:23.375Z,99752.13
2018-05-10T07:13:52.559Z,99755.03
2018-05-10T07:16:21.738Z,99756.66
2018-05-10T07:18:50.925Z,99758.48
2018-05-10T07:21:20.126Z,99756.77
2018-05-10T07:23:51.269Z,99759.28
2018-05-10T07:26:21.200Z,99762.41
2018-05-10T07:28:51.117Z,99768.75
2018-05-10T07:31:20.314Z,99762.41
2018-05-10T07:33:49.487Z,99765.53
2018-05-10T07:36:19.614Z,99768.29
2018-05-10T07:38:48.755Z,99770.07
2018-05-10T07:41:18.917Z,99775.59
2018-05-10T07:43:48.079Z,99775.22
2018-05-10T07:46:18.924Z,99785.58
2018-05-10T07:48:48.078Z,99790.77
2018-05-10T07:51:18.182Z,99799.22
2018-05-10T07:53:48.126Z,99796.11
2018-05-10T07:56:18.071Z,99809.28
2018-05-10T07:58:47.253Z,99814.62
2018-05-10T08:01:16.419Z,99817.66
2018-05-10T08:03:46.084Z,99828.47
2018-05-10T08:06:16.217Z,99832.34
2018-05-10T08:08:45.405Z,99832.09
2018-05-10T08:11:15.173Z,99836.91
2018-05-10T08:13:44.328Z,99846.28
2018-05-10T08:16:13.501Z,99856.08
2018-05-10T08:18:42.710Z,99866.27
2018-05-10T08:21:11.877Z,99863.13
2018-05-10T08:23:48.644Z,99866.29
2018-05-10T08:26:18.583Z,99867.67
2018-05-10T08:28:47.760Z,99881.20
2018-05-10T08:31:17.761Z,99884.11
2018-05-10T08:33:46.934Z,99885.63
2018-05-10T08:36:17.042Z,99898.19
2018-05-10T08:38:46.223Z,99898.97
2018-05-10T08:41:15.423Z,99903.80
2018-05-10T08:43:44.592Z,99910.94
2018-05-10T08:46:14.747Z,99907.09
2018-05-10T08:48:43.930Z,99917.34
2018-05-10T08:51:14.716Z,99919.81
2018-05-10T08:53:43.871Z,99931.39
2018-05-10T08:56:13.697Z,99934.08
2018-05-10T08:58:42.897Z,99935.75
2018-05-10T09:01:12.101Z,99938.22
2018-05-10T09:03:41.256Z,99944.23
2018-05-10T09:06:11.402Z,99946.60
2018-05-10T09:08:40.594Z,99945.11
2018-05-10T09:11:10.668Z,99957.92
2018-05-10T09:13:39.841Z,99956.92
2018-05-10T09:16:09.174Z,99959.42
2018-05-10T09:18:39.111Z,99967.47
2018-05-10T09:21:08.280Z,99966.40
2018-05-10T09:23:38.218Z,99969.10
2018-05-10T09:26:07.384Z,99974.57
2018-05-10T09:28:36.535Z,99983.20
2018-05-10T09:31:05.742Z,99981.16
2018-05-10T09:33:35.731Z,99988.03
2018-05-10T09:36:05.054Z,99993.31
2018-05-10T09:38:34.237Z,99993.52
2018-05-10T09:41:03.394Z,99990.13
2018-05-10T09:43:32.549Z,100006.33
2018-05-10T09:46:02.493Z,100006.72
2018-05-10T09:48:31.660Z,100010.59
2018-05-10T09:51:00.835Z,100014.72
2018-05-10T09:53:30.981Z,100017.60
2018-05-10T09:56:00.168Z,100022.86
2018-05-10T09:58:29.359Z,100029.67
2018-05-10T10:00:58.540Z,100028.95
2018-05-10T10:03:28.604Z,100038.31
2018-05-10T10:05:57.786Z,100038.70
2018-05-10T10:08:27.042Z,100039.69
2018-05-10T10:10:56.973Z,100045.80
2018-05-10T10:13:26.139Z,100046.84
2018-05-10T10:15:55.477Z,100055.38
2018-05-10T10:18:24.672Z,100065.40
2018-05-10T10:20:53.859Z,100059.55
2018-05-10T10:23:23.777Z,100064.17
2018-05-10T10:25:52.948Z,100065.62
2018-05-10T10:28:23.154Z,100065.19
2018-05-10T10:30:52.325Z,100069.59
2018-05-10T10:33:22.452Z,100071.56
2018-05-10T10:35:51.603Z,100077.88
2018-05-10T10:38:21.549Z,100079.41
2018-05-10T10:40:50.708Z,100084.52
2018-05-10T10:43:20.663Z,100088.52
2018-05-10T10:45:49.880Z,100097.16
2018-05-10T10:48:19.059Z,100096.03
2018-05-10T10:50:48.239Z,100094.85
2018-05-10T10:53:17.589Z,100100.61
2018-05-10T10:55:46.746Z,100098.17
2018-05-10T10:58:16.874Z,100104.20
2018-05-10T11:00:46.034Z,100107.82
2018-05-10T11:03:15.978Z,100104.87
2018-05-10T11:05:45.196Z,100114.84
2018-05-10T11:08:15.174Z,100112.53
2018-05-10T11:10:45.124Z,100123.94
2018-05-10T11:13:16.587Z,100121.41
2018-05-10T11:15:45.740Z,100130.08
2018-05-10T11:18:14.932Z,100132.58
2018-05-10T11:20:45.236Z,100134.17
2018-05-10T11:23:14.615Z,100138.34
2018-05-10T11:25:43.795Z,100139.55
2018-05-10T11:28:12.942Z,100148.25
2018-05-10T11:30:42.096Z,100150.20
2018-05-10T11:33:11.314Z,100142.56
2018-05-10T11:35:40.502Z,100146.37
2018-05-10T11:38:09.679Z,100151.11
2018-05-10T11:40:38.911Z,100151.58
2018-05-10T11:43:08.095Z,100155.17
2018-05-10T11:45:37.307Z,100166.61
2018-05-10T11:48:06.461Z,100165.20
2018-05-10T11:50:35.818Z,100160.56
2018-05-10T11:53:05.016Z,100159.98
2018-05-10T11:55:34.210Z,100162.75
2018-05-10T11:58:03.388Z,100168.79
2018-05-10T12:00:32.570Z,100171.62
2018-05-10T12:03:02.670Z,100168.61
2018-05-10T12:05:31.846Z,100178.40
2018-05-10T12:08:01.047Z,100176.63
2018-05-10T12:10:31.320Z,100184.84
2018-05-10T12:13:00.524Z,100180.84
2018-05-10T12:15:29.698Z,100190.45
2018-05-10T12:17:59.664Z,100190.88
2018-05-10T12:20:28.846Z,100197.72
2018-05-10T12:22:58.021Z,100194.38
2018-05-10T12:25:28.975Z,100197.72
2018-05-10T12:27:58.859Z,100205.63
2018-05-10T12:30:28.814Z,100210.67
2018-05-10T12:32:57.945Z,100212.22
2018-05-10T12:35:27.157Z,100208.72
2018-05-10T12:37:57.085Z,100215.29
2018-05-10T12:40:27.027Z,100221.50
2018-05-10T12:42:56.945Z,100218.88
2018-05-10T12:45:27.105Z,100232.00
2018-05-10T12:47:57.065Z,100229.89
2018-05-10T12:50:27.215Z,100234.95
2018-05-10T12:52:57.174Z,100238.13
2018-05-10T12:55:26.742Z,100241.56
2018-05-10T12:57:55.942Z,100242.22
2018-05-10T13:00:25.078Z,100254.98
2018-05-10T13:02:54.595Z,100258.89
2018-05-10T13:05:24.506Z,100258.49
2018-05-10T13:07:53.739Z,100268.16
2018-05-10T13:10:22.948Z,100271.58
2018-05-10T13:12:52.126Z,100270.33
2018-05-10T13:15:22.657Z,100276.64
2018-05-10T13:17:51.822Z,100279.84
2018-05-10T13:20:21.039Z,100280.28
2018-05-10T13:22:51.002Z,100282.52
2018-05-10T13:25:20.217Z,100288.72
2018-05-10T13:27:49.419Z,100295.16
2018-05-10T13:30:18.644Z,100297.66
2018-05-10T13:32:47.835Z,100309.56
2018-05-10T13:35:17.017Z,100319.28
2018-05-10T13:37:46.205Z,100320.53
2018-05-10T13:40:15.377Z,100328.19
2018-05-10T13:42:45.432Z,100333.42
2018-05-10T13:45:15.271Z,100335.13
2018-05-10T13:47:46.285Z,100348.56
2018-05-10T13:50:15.505Z,100347.74
2018-05-10T13:52:44.674Z,100354.84
2018-05-10T13:55:13.878Z,100363.73
2018-05-10T13:57:43.090Z,100365.86
2018-05-10T14:00:12.294Z,100368.81
2018-05-10T14:02:41.477Z,100386.89
2018-05-10T14:05:10.669Z,100385.19
2018-05-10T14:07:39.860Z,100387.86
2018-05-10T14:10:10.570Z,100394.31
2018-05-10T14:12:40.525Z,100409.95
2018-05-10T14:15:09.702Z,100408.78
2018-05-10T14:17:38.885Z,100415.98
2018-05-10T14:20:08.082Z,100423.25
2018-05-10T14:22:37.237Z,100428.62
2018-05-10T14:25:07.211Z,100438.31
2018-05-10T14:27:36.386Z,100447.72
2018-05-10T14:30:05.564Z,100450.91
2018-05-10T14:32:35.845Z,100464.00
2018-05-10T14:35:05.029Z,100470.56
2018-05-10T14:37:34.183Z,100477.63
2018-05-10T14:40:03.335Z,100488.58
2018-05-10T14:42:33.467Z,100492.51
2018-05-10T14:45:03.477Z,100493.42
2018-05-10T14:47:32.641Z,100497.74
2018-05-10T14:50:01.845Z,100510.42
2018-05-10T14:52:31.062Z,100518.81
2018-05-10T14:55:00.226Z,100523.48
2018-05-10T14:57:30.157Z,100527.23
2018-05-10T14:59:59.333Z,100535.70
2018-05-10T15:02:29.454Z,100533.23
2018-05-10T15:04:58.692Z,100536.00
2018-05-10T15:07:28.201Z,100544.25
2018-05-10T15:09:58.872Z,100543.59
2018-05-10T15:12:29.115Z,100545.03
2018-05-10T15:14:58.676Z,100548.80
2018-05-10T15:17:28.636Z,100552.34
2018-05-10T15:19:57.811Z,100558.44
2018-05-10T15:22:28.771Z,100555.09
2018-05-10T15:24:57.979Z,100564.87
2018-05-10T15:27:27.139Z,100563.83
2018-05-10T15:29:57.084Z,100567.13
2018-05-10T15:32:27.125Z,100573.40
2018-05-10T15:34:57.074Z,100582.55
2018-05-10T15:37:27.958Z,100581.36
2018-05-10T15:39:57.112Z,100577.29
2018-05-10T15:42:27.057Z,100580.20
2018-05-10T15:44:56.210Z,100583.46
2018-05-10T15:47:25.389Z,100584.98
2018-05-10T15:49:54.591Z,100581.73
2018-05-10T15:52:23.773Z,100581.02
2018-05-10T15:54:53.791Z,100585.39
2018-05-10T15:57:22.980Z,100592.42
2018-05-10T15:59:52.176Z,100593.84
2018-05-10T16:02:21.319Z,100602.33
2018-05-10T16:04:51.295Z,100601.00
2018-05-10T16:07:20.454Z,100602.42
2018-05-10T16:09:50.394Z,100606.06
2018-05-10T16:12:19.586Z,100608.83
2018-05-10T16:14:49.725Z,100619.59
2018-05-10T16:17:20.085Z,100616.34
2018-05-10T16:19:49.272Z,100626.01
2018-05-10T16:22:19.978Z,100628.20
2018-05-10T16:24:49.133Z,100625.01
2018-05-10T16:27:19.066Z,100626.91
2018-05-10T16:29:48.222Z,100627.20
2018-05-10T16:32:17.396Z,100629.80
2018-05-10T16:34:47.473Z,100629.79
2018-05-10T16:37:17.076Z,100636.78
2018-05-10T16:39:46.997Z,100631.27
2018-05-10T16:42:16.172Z,100638.07
2018-05-10T16:44:46.124Z,100636.95
2018-05-10T16:47:16.721Z,100639.09
2018-05-10T16:49:46.710Z,100649.11
2018-05-10T16:52:16.003Z,100647.00
2018-05-10T16:54:45.178Z,100643.05
2018-05-10T16:57:16.426Z,100644.78
2018-05-10T16:59:45.912Z,100642.16
2018-05-10T17:02:16.066Z,100643.98
2018-05-10T17:04:45.243Z,100645.11
2018-05-10T17:07:14.461Z,100653.50
2018-05-10T17:09:44.416Z,100649.63
2018-05-10T17:12:14.360Z,100656.67
2018-05-10T17:14:43.551Z,100659.06
2018-05-10T17:17:12.791Z,100671.36
2018-05-10T17:19:41.924Z,100668.41
2018-05-10T17:22:11.122Z,100678.18
2018-05-10T17:24:41.078Z,100677.52
2018-05-10T17:27:10.241Z,100680.78
2018-05-10T17:29:41.235Z,100680.22
2018-05-10T17:32:10.435Z,100690.23
2018-05-10T17:34:40.637Z,100683.80
2018-05-10T17:37:09.781Z,100689.14
2018-05-10T17:39:39.023Z,100691.98
2018-05-10T17:42:08.190Z,100690.02
2018-05-10T17:44:38.154Z,100702.08
2018-05-10T17:47:07.353Z,100708.41
2018-05-10T17:49:36.699Z,100709.71
2018-05-10T17:52:06.636Z,100711.36
2018-05-10T17:54:36.582Z,100714.84
2018-05-10T17:57:05.841Z,100714.45
2018-05-10T17:59:34.964Z,100719.03
2018-05-10T18:02:04.203Z,100722.16
2018-05-10T18:04:33.402Z,100726.48
2018-05-10T18:07:03.539Z,100733.08
2018-05-10T18:09:32.693Z,100728.00
2018-05-10T18:12:01.882Z,100734.96
2018-05-10T18:14:32.004Z,100746.08
2018-05-10T18:17:01.184Z,100741.92
2018-05-10T18:19:30.375Z,100752.58
2018-05-10T18:21:59.545Z,100753.27
2018-05-10T18:24:28.720Z,100760.16
2018-05-10T18:26:58.650Z,100768.16
2018-05-10T18:29:28.790Z,100766.09
2018-05-10T18:31:58.917Z,100772.87
2018-05-10T18:34:28.861Z,100764.64
2018-05-10T18:36:58.306Z,100770.13
2018-05-10T18:39:27.488Z,100779.36
2018-05-10T18:41:57.436Z,100782.45
2018-05-10T18:44:26.618Z,100787.98
2018-05-10T18:46:55.825Z,100788.19
2018-05-10T18:49:24.992Z,100792.34
2018-05-10T18:51:54.991Z,100798.78
2018-05-10T18:54:24.191Z,100806.34
2018-05-10T18:56:53.673Z,100806.06
2018-05-10T18:59:22.839Z,100808.80
2018-05-10T19:01:52.092Z,100805.25
2018-05-10T19:07:04.594Z,100821.75
2018-05-10T19:09:33.808Z,100831.42
2018-05-10T19:12:02.987Z,100833.67
2018-05-10T19:14:32.168Z,100837.82
2018-05-10T19:17:02.961Z,100840.21
2018-05-10T19:19:33.202Z,100841.45
2018-05-10T19:22:02.394Z,100843.70
2018-05-10T19:24:31.612Z,100850.39
2018-05-10T19:27:01.747Z,100857.03
2018-05-10T19:29:30.926Z,100865.34
2018-05-10T19:32:00.119Z,100863.45
2018-05-10T19:34:29.430Z,100875.27
2018-05-10T19:36:58.630Z,100879.42
2018-05-10T19:39:27.794Z,100887.16
2018-05-10T19:41:57.766Z,100882.03
2018-05-10T19:44:26.948Z,100888.27
2018-05-10T19:46:56.272Z,100892.60
2018-05-10T19:49:26.362Z,100895.91
2018-05-10T19:51:55.531Z,100898.16
2018-05-10T19:54:25.613Z,100897.84
2018-05-10T19:56:54.869Z,100900.84
2018-05-10T19:59:24.038Z,100905.70
2018-05-10T20:01:53.753Z,100914.58
2018-05-10T20:04:23.733Z,100910.98
2018-05-10T20:06:53.844Z,100922.98
2018-05-10T20:09:23.018Z,100921.84
2018-05-10T20:11:54.252Z,100932.66
2018-05-10T20:14:23.503Z,100936.54
2018-05-10T20:16:53.753Z,100936.81
2018-05-10T20:19:22.900Z,100933.44
2018-05-10T20:21:52.061Z,100938.65
2018-05-10T20:24:21.266Z,100947.11
2018-05-10T20:26:50.432Z,100941.89
2018-05-10T20:29:19.609Z,100943.05
2018-05-10T20:31:48.764Z,100941.44
2018-05-10T20:34:17.917Z,100945.31
2018-05-10T20:36:47.871Z,100947.00
2018-05-10T20:39:17.020Z,100950.20
2018-05-10T20:41:46.266Z,100951.55
2018-05-10T20:44:16.872Z,100948.41
2018-05-10T20:46:46.817Z,100952.57
2018-05-10T20:49:18.376Z,100951.72
2018-05-10T20:51:47.566Z,100953.80
2018-05-10T20:54:18.361Z,100953.80
2018-05-10T20:56:47.770Z,100951.97
2018-05-10T20:59:17.679Z,100951.23
2018-05-10T21:01:46.914Z,100948.83
2018-05-10T21:04:16.696Z,100955.28
2018-05-10T21:06:46.874Z,100950.42
2018-05-10T21:09:16.661Z,100952.22
2018-05-10T21:11:45.868Z,100954.70
2018-05-10T21:14:15.998Z,100953.61
2018-05-10T21:16:45.204Z,100957.11
2018-05-10T21:19:14.426Z,100962.20
2018-05-10T21:21:43.636Z,100961.22
2018-05-10T21:24:12.753Z,100963.33
2018-05-10T21:26:43.005Z,100967.00
2018-05-10T21:29:12.203Z,100957.53
2018-05-10T21:31:41.944Z,100963.42
2018-05-10T21:34:12.069Z,100961.25
2018-05-10T21:36:41.247Z,100963.43
2018-05-10T21:39:10.403Z,100969.59
2018-05-10T21:41:39.583Z,100969.95
2018-05-10T21:44:10.421Z,100967.36
2018-05-10T21:46:40.359Z,100972.20
2018-05-10T21:49:26.927Z,100967.80
2018-05-10T21:51:56.129Z,100969.71
2018-05-10T21:54:26.247Z,100973.58
2018-05-10T21:56:56.767Z,100966.26
2018-05-10T21:59:25.947Z,100971.68
2018-05-10T22:01:55.737Z,100968.25
2018-05-10T22:04:24.990Z,100980.09
2018-05-10T22:06:54.936Z,100975.16
2018-05-10T22:09:24.106Z,100976.13
2018-05-10T22:11:56.996Z,100973.41
2018-05-10T22:14:27.072Z,100974.14
2018-05-10T22:16:57.260Z,100981.38
2018-05-10T22:19:26.426Z,100978.32
2018-05-10T22:21:55.591Z,100985.32
2018-05-10T22:24:25.744Z,100978.14
2018-05-10T22:26:54.911Z,100988.77
2018-05-10T22:29:24.062Z,100990.00
2018-05-10T22:31:53.983Z,100997.02
2018-05-10T22:34:23.162Z,101000.08
2018-05-10T22:36:52.334Z,100999.55
2018-05-10T22:39:21.518Z,100991.95
2018-05-10T22:41:50.685Z,100991.67
2018-05-10T22:44:19.909Z,100981.81
2018-05-10T22:46:49.988Z,100990.91
2018-05-10T22:49:20.957Z,100991.75
2018-05-10T22:51:50.123Z,100994.02
2018-05-10T22:54:19.294Z,100984.61
2018-05-10T22:56:48.451Z,100991.58
2018-05-10T22:59:18.395Z,100986.91
2018-05-10T23:01:47.540Z,100988.16
2018-05-10T23:04:16.829Z,100995.52
2018-05-10T23:06:46.783Z,100994.85
2018-05-10T23:09:17.722Z,100995.78
2018-05-10T23:11:46.878Z,100987.98
2018-05-10T23:14:16.877Z,100987.20
2018-05-10T23:16:46.796Z,100990.48
2018-05-10T23:19:16.907Z,100988.60
2018-05-10T23:21:46.858Z,100985.84
2018-05-10T23:24:16.912Z,100986.58
2018-05-10T23:26:46.283Z,100984.31
2018-05-10T23:29:15.430Z,100980.23
2018-05-10T23:31:44.581Z,100978.03
2018-05-10T23:34:13.785Z,100981.91
2018-05-10T23:36:42.920Z,100975.02
2018-05-10T23:39:12.858Z,100980.41
2018-05-10T23:41:42.795Z,100976.39
2018-05-10T23:44:12.724Z,100976.31
2018-05-10T23:46:41.871Z,100974.89
2018-05-10T23:49:11.030Z,100968.78
2018-05-10T23:51:40.184Z,100963.55
2018-05-10T23:54:10.687Z,100957.05
2018-05-10T23:56:39.838Z,100950.48
2018-05-10T23:59:09.608Z,100952.56
